Time;durP1;ratioP1;P1;durP2;ratioP2;P2;SDS_P1;SDS_P2;PMS_P1;PMS_P2;Temp;Humidity;BMP_temperature;BMP_pressure;BME280_temperature;BME280_humidity;BME280_pressure;Samples;Min_cycle;Max_cycle;Signal;HPM_P1;HPM_P2
2023/02/08 00:02:14;;;;;;;43.85;31.27;;;;;;;;;;10345351;28;20098;-71
2023/02/08 00:07:13;;;;;;;45.70;34.08;;;;;;;;;;10343131;28;20201;-69
2023/02/08 00:12:11;;;;;;;41.65;30.77;;;;;;;;;;10345074;28;20512;-69
2023/02/08 00:17:10;;;;;;;45.88;29.45;;;;;;;;;;10343411;28;20095;-71
2023/02/08 00:22:08;;;;;;;44.17;33.53;;;;;;;;;;10342898;28;20453;-71
2023/02/08 00:27:07;;;;;;;56.22;38.03;;;;;;;;;;10338891;28;20080;-71
2023/02/08 00:32:05;;;;;;;49.47;37.15;;;;;;;;;;10341798;28;20088;-71
2023/02/08 00:37:04;;;;;;;47.05;34.72;;;;;;;;;;10341306;28;20079;-71
2023/02/08 00:42:02;;;;;;;44.15;32.13;;;;;;;;;;10339245;28;20063;-71
2023/02/08 00:47:04;;;;;;;43.65;30.77;;;;;;;;;;10341492;28;20040;-69
2023/02/08 00:52:02;;;;;;;41.47;30.73;;;;;;;;;;10338059;28;20040;-69
2023/02/08 00:57:00;;;;;;;36.55;28.92;;;;;;;;;;10342637;28;20536;-69
2023/02/08 01:01:59;;;;;;;38.65;28.65;;;;;;;;;;10341884;28;20072;-70
2023/02/08 01:06:58;;;;;;;46.63;33.15;;;;;;;;;;10340359;28;20075;-70
2023/02/08 01:11:57;;;;;;;46.92;34.72;;;;;;;;;;10339353;28;20071;-70
2023/02/08 01:16:55;;;;;;;43.63;33.17;;;;;;;;;;10340023;28;20068;-71
2023/02/08 01:21:53;;;;;;;39.08;30.15;;;;;;;;;;10340317;28;20083;-71
2023/02/08 01:26:54;;;;;;;51.95;37.95;;;;;;;;;;10340810;28;20075;-70
2023/02/08 01:31:52;;;;;;;47.45;36.50;;;;;;;;;;10341385;28;20079;-70
2023/02/08 01:36:50;;;;;;;51.22;37.80;;;;;;;;;;10319604;28;20075;-70
2023/02/08 01:41:49;;;;;;;48.97;33.50;;;;;;;;;;10320271;28;20071;-70
2023/02/08 01:46:50;;;;;;;55.85;38.72;;;;;;;;;;10336550;28;20068;-70
2023/02/08 01:51:52;;;;;;;41.75;32.63;;;;;;;;;;10337303;28;20075;-70
2023/02/08 01:56:50;;;;;;;55.25;37.72;;;;;;;;;;10340914;28;20094;-69
2023/02/08 02:01:52;;;;;;;50.63;36.88;;;;;;;;;;10335933;28;20080;-70
2023/02/08 02:06:52;;;;;;;41.63;31.95;;;;;;;;;;10338140;28;20563;-69
2023/02/08 02:11:51;;;;;;;38.58;30.75;;;;;;;;;;10337688;28;20064;-69
2023/02/08 02:16:51;;;;;;;43.55;35.42;;;;;;;;;;10335311;28;20083;-69
2023/02/08 02:21:54;;;;;;;41.22;32.40;;;;;;;;;;10336015;28;20060;-69
2023/02/08 02:27:10;;;;;;;28.13;21.90;;;;;;;;;;10338528;28;20063;-70
2023/02/08 02:32:15;;;;;;;37.80;30.00;;;;;;;;;;10336876;28;20103;-70
2023/02/08 02:37:19;;;;;;;24.52;19.30;;;;;;;;;;10331977;28;20075;-69
2023/02/08 02:47:39;;;;;;;19.77;15.13;;;;;;;;;;10338418;28;20071;-70
2023/02/08 02:52:40;;;;;;;17.85;14.63;;;;;;;;;;10338219;28;20072;-70
2023/02/08 02:57:39;;;;;;;18.23;14.15;;;;;;;;;;10333204;28;20077;-70
2023/02/08 03:02:39;;;;;;;18.00;14.40;;;;;;;;;;10331571;28;20063;-70
2023/02/08 03:07:48;;;;;;;16.38;12.85;;;;;;;;;;10336430;28;20075;-70
2023/02/08 03:12:51;;;;;;;16.25;12.40;;;;;;;;;;10333115;28;20087;-70
2023/02/08 03:17:56;;;;;;;16.05;12.50;;;;;;;;;;10345643;28;20119;-70
2023/02/08 03:22:59;;;;;;;15.18;12.05;;;;;;;;;;10342744;28;20072;-70
2023/02/08 03:28:01;;;;;;;16.38;12.30;;;;;;;;;;10340633;28;20068;-71
2023/02/08 03:33:02;;;;;;;14.80;11.95;;;;;;;;;;10327898;28;20084;-71
2023/02/08 03:38:03;;;;;;;18.15;13.32;;;;;;;;;;10302445;28;20509;-71
2023/02/08 03:43:03;;;;;;;20.48;13.50;;;;;;;;;;10302384;28;20077;-71
2023/02/08 03:48:04;;;;;;;16.38;12.85;;;;;;;;;;10303479;28;20080;-71
2023/02/08 03:53:03;;;;;;;23.20;17.45;;;;;;;;;;10285902;28;20080;-68
2023/02/08 03:58:05;;;;;;;15.77;13.05;;;;;;;;;;10300782;28;20072;-70
2023/02/08 04:03:06;;;;;;;16.08;12.68;;;;;;;;;;10303883;28;20072;-71
2023/02/08 04:08:05;;;;;;;17.42;13.18;;;;;;;;;;10300842;28;20106;-71
2023/02/08 04:13:03;;;;;;;15.50;12.77;;;;;;;;;;10301394;28;20068;-70
2023/02/08 04:18:01;;;;;;;15.07;11.95;;;;;;;;;;10300536;28;20081;-71
2023/02/08 04:23:01;;;;;;;22.15;15.45;;;;;;;;;;10300310;28;20075;-70
2023/02/08 04:27:59;;;;;;;16.67;13.45;;;;;;;;;;10302384;28;20064;-71
2023/02/08 04:32:58;;;;;;;18.20;12.82;;;;;;;;;;10318205;28;20091;-71
2023/02/08 04:37:57;;;;;;;14.93;12.05;;;;;;;;;;10339019;28;20492;-70
2023/02/08 04:42:56;;;;;;;14.30;11.38;;;;;;;;;;10344457;28;20071;-71
2023/02/08 04:47:54;;;;;;;15.20;11.85;;;;;;;;;;10338060;28;20063;-71
2023/02/08 04:52:55;;;;;;;19.90;14.93;;;;;;;;;;10343488;28;20078;-71
2023/02/08 04:57:53;;;;;;;26.42;17.77;;;;;;;;;;10335847;28;20161;-71
2023/02/08 05:02:54;;;;;;;35.65;21.88;;;;;;;;;;10344355;28;20071;-71
2023/02/08 05:07:52;;;;;;;20.08;14.98;;;;;;;;;;10334779;28;20079;-70
2023/02/08 05:12:50;;;;;;;40.72;25.73;;;;;;;;;;10341079;28;20068;-69
2023/02/08 05:17:48;;;;;;;21.52;15.88;;;;;;;;;;10337198;28;20080;-71
2023/02/08 05:22:48;;;;;;;31.85;22.05;;;;;;;;;;10350709;28;20444;-71
2023/02/08 05:27:46;;;;;;;24.17;16.27;;;;;;;;;;10341621;28;20091;-72
2023/02/08 05:32:44;;;;;;;18.73;14.00;;;;;;;;;;10348256;28;20492;-71
2023/02/08 05:37:44;;;;;;;26.70;18.20;;;;;;;;;;10336579;28;20083;-71
2023/02/08 05:42:46;;;;;;;50.58;34.05;;;;;;;;;;10308658;28;20114;-71
2023/02/08 05:47:46;;;;;;;54.30;35.58;;;;;;;;;;10323474;28;20503;-71
2023/02/08 05:52:44;;;;;;;21.02;16.70;;;;;;;;;;10330836;28;20068;-70
2023/02/08 05:57:43;;;;;;;25.02;18.73;;;;;;;;;;10330259;28;20084;-70
2023/02/08 06:02:42;;;;;;;23.30;17.50;;;;;;;;;;10331931;28;20066;-71
2023/02/08 06:07:40;;;;;;;26.67;18.23;;;;;;;;;;10328224;28;20052;-70
2023/02/08 06:12:38;;;;;;;27.05;18.40;;;;;;;;;;10320861;28;20075;-71
2023/02/08 06:17:38;;;;;;;22.38;16.23;;;;;;;;;;10329676;28;20074;-71
2023/02/08 06:22:36;;;;;;;21.50;15.77;;;;;;;;;;10343116;28;20072;-71
2023/02/08 06:27:35;;;;;;;37.38;19.42;;;;;;;;;;10338753;28;20079;-70
2023/02/08 06:32:33;;;;;;;30.73;17.10;;;;;;;;;;10327400;28;20075;-72
2023/02/08 06:37:32;;;;;;;20.08;14.35;;;;;;;;;;10342025;28;20079;-71
2023/02/08 06:42:31;;;;;;;24.60;16.77;;;;;;;;;;10333707;28;20090;-71
2023/02/08 06:47:29;;;;;;;40.20;28.13;;;;;;;;;;10335780;28;20071;-71
2023/02/08 06:52:27;;;;;;;34.33;23.83;;;;;;;;;;10337152;28;20067;-72
2023/02/08 06:57:27;;;;;;;23.75;16.98;;;;;;;;;;10340308;28;20072;-72
2023/02/08 07:02:25;;;;;;;33.50;25.45;;;;;;;;;;10333023;28;20064;-72
2023/02/08 07:07:23;;;;;;;21.85;16.48;;;;;;;;;;10335014;28;20514;-72
2023/02/08 07:12:21;;;;;;;26.15;18.08;;;;;;;;;;10326250;28;20072;-72
2023/02/08 07:17:21;;;;;;;33.97;22.60;;;;;;;;;;10327693;28;20566;-72
2023/02/08 07:22:19;;;;;;;25.83;17.13;;;;;;;;;;10352979;28;20241;-71
2023/02/08 07:27:19;;;;;;;25.23;16.33;;;;;;;;;;10336326;28;20079;-72
2023/02/08 07:32:17;;;;;;;34.97;22.80;;;;;;;;;;10343216;28;20080;-71
2023/02/08 07:37:17;;;;;;;19.77;15.30;;;;;;;;;;10336847;28;20085;-71
2023/02/08 07:42:18;;;;;;;22.65;17.08;;;;;;;;;;10325832;28;20082;-71
2023/02/08 07:47:25;;;;;;;33.88;21.10;;;;;;;;;;10326204;28;20055;-71
2023/02/08 07:52:25;;;;;;;30.95;18.67;;;;;;;;;;10325065;28;20079;-72
2023/02/08 07:57:23;;;;;;;19.73;15.77;;;;;;;;;;10341801;28;20075;-72
2023/02/08 08:02:21;;;;;;;24.13;18.30;;;;;;;;;;10334154;28;20118;-72
2023/02/08 08:07:19;;;;;;;31.15;16.45;;;;;;;;;;10335444;28;20269;-72
2023/02/08 08:12:23;;;;;;;21.20;15.10;;;;;;;;;;10335300;28;20071;-72
2023/02/08 08:17:21;;;;;;;24.52;17.65;;;;;;;;;;10339035;28;20075;-72
2023/02/08 08:22:19;;;;;;;22.10;14.80;;;;;;;;;;10335481;28;20078;-73
2023/02/08 08:27:17;;;;;;;17.55;11.60;;;;;;;;;;10334966;28;20091;-73
2023/02/08 08:32:17;;;;;;;21.75;16.55;;;;;;;;;;10335306;28;20591;-71
2023/02/08 08:37:15;;;;;;;17.33;13.27;;;;;;;;;;10329551;28;20071;-71
2023/02/08 08:42:13;;;;;;;20.25;14.05;;;;;;;;;;10335373;28;20095;-72
2023/02/08 08:47:11;;;;;;;23.38;15.93;;;;;;;;;;10335155;28;20455;-72
2023/02/08 08:52:11;;;;;;;21.00;14.90;;;;;;;;;;10331094;28;20055;-71
2023/02/08 08:57:09;;;;;;;44.90;30.52;;;;;;;;;;10329462;28;20071;-72
2023/02/08 09:02:09;;;;;;;25.75;19.23;;;;;;;;;;10329433;28;20098;-72
2023/02/08 09:07:12;;;;;;;28.02;25.00;;;;;;;;;;10334810;28;20064;-72
2023/02/08 09:12:12;;;;;;;22.60;15.35;;;;;;;;;;10332049;28;20091;-73
2023/02/08 09:17:10;;;;;;;21.02;14.90;;;;;;;;;;10332267;28;20084;-72
2023/02/08 09:22:09;;;;;;;19.65;16.40;;;;;;;;;;10334758;28;20072;-72
2023/02/08 09:27:08;;;;;;;16.13;13.63;;;;;;;;;;10333274;28;20489;-71
2023/02/08 09:32:06;;;;;;;19.35;15.50;;;;;;;;;;10346417;28;20048;-72
2023/02/08 09:37:07;;;;;;;20.58;15.65;;;;;;;;;;10333328;28;20083;-71
2023/02/08 09:42:20;;;;;;;23.65;17.40;;;;;;;;;;10327355;28;20087;-70
2023/02/08 09:47:20;;;;;;;27.98;17.35;;;;;;;;;;10328901;28;20082;-71
2023/02/08 09:52:19;;;;;;;22.30;17.00;;;;;;;;;;10332445;28;20060;-71
2023/02/08 09:57:22;;;;;;;22.35;16.10;;;;;;;;;;10331878;28;20389;-71
2023/02/08 10:02:23;;;;;;;23.45;15.52;;;;;;;;;;10331721;28;20067;-69
2023/02/08 10:07:21;;;;;;;17.38;14.50;;;;;;;;;;10330457;28;20063;-72
2023/02/08 10:12:25;;;;;;;20.20;15.95;;;;;;;;;;10334361;28;20075;-72
2023/02/08 10:17:47;;;;;;;25.30;15.27;;;;;;;;;;10332275;28;20083;-71
2023/02/08 10:22:52;;;;;;;36.38;20.60;;;;;;;;;;10315947;28;20071;-71
2023/02/08 10:27:59;;;;;;;34.10;22.05;;;;;;;;;;10332972;28;20430;-71
2023/02/08 10:33:01;;;;;;;46.85;27.90;;;;;;;;;;10331670;28;20141;-71
2023/02/08 10:37:59;;;;;;;76.47;37.35;;;;;;;;;;10325652;28;20079;-72
2023/02/08 10:43:03;;;;;;;29.02;21.85;;;;;;;;;;10333032;28;20068;-72
2023/02/08 10:48:02;;;;;;;25.13;18.93;;;;;;;;;;10329472;28;20067;-72
2023/02/08 10:53:01;;;;;;;27.63;20.67;;;;;;;;;;10329896;28;20071;-72
2023/02/08 10:58:05;;;;;;;34.53;25.17;;;;;;;;;;10330658;28;20777;-72
2023/02/08 11:03:12;;;;;;;24.05;17.42;;;;;;;;;;10329112;28;20083;-70
2023/02/08 11:08:12;;;;;;;35.28;21.38;;;;;;;;;;10325320;28;20072;-70
2023/02/08 11:13:17;;;;;;;21.88;17.17;;;;;;;;;;10330282;28;20072;-71
2023/02/08 11:18:19;;;;;;;33.58;22.55;;;;;;;;;;10327081;28;20461;-71
2023/02/08 11:23:20;;;;;;;22.75;16.30;;;;;;;;;;10331266;28;20479;-71
2023/02/08 11:28:23;;;;;;;30.55;22.45;;;;;;;;;;10328479;28;20079;-72
2023/02/08 11:33:22;;;;;;;31.33;26.30;;;;;;;;;;10337545;28;20080;-72
2023/02/08 11:38:26;;;;;;;30.98;21.92;;;;;;;;;;10337798;28;20071;-72
2023/02/08 11:43:27;;;;;;;37.42;28.48;;;;;;;;;;10338683;28;20072;-72
2023/02/08 11:48:26;;;;;;;39.75;25.73;;;;;;;;;;10340666;28;20080;-72
2023/02/08 11:53:28;;;;;;;30.55;22.67;;;;;;;;;;10337150;28;20067;-71
2023/02/08 11:58:28;;;;;;;29.65;22.00;;;;;;;;;;10337091;28;20078;-72
2023/02/08 12:03:28;;;;;;;24.77;20.33;;;;;;;;;;10338364;28;20520;-70
2023/02/08 12:08:31;;;;;;;25.75;19.20;;;;;;;;;;10332193;28;20071;-70
2023/02/08 12:13:37;;;;;;;20.02;14.95;;;;;;;;;;10334743;28;20060;-70
2023/02/08 12:18:51;;;;;;;25.38;16.92;;;;;;;;;;10336076;28;20072;-71
2023/02/08 12:23:51;;;;;;;24.50;16.45;;;;;;;;;;10334401;28;20072;-71
2023/02/08 12:29:03;;;;;;;35.00;22.33;;;;;;;;;;10336560;28;20573;-71
2023/02/08 12:34:07;;;;;;;33.60;23.23;;;;;;;;;;10333937;28;20454;-71
2023/02/08 12:44:32;;;;;;;26.75;18.88;;;;;;;;;;10332128;28;20079;-71
2023/02/08 12:49:36;;;;;;;23.67;17.50;;;;;;;;;;10335270;28;20468;-71
2023/02/08 12:54:37;;;;;;;81.17;56.77;;;;;;;;;;10336308;28;20107;-71
2023/02/08 12:59:39;;;;;;;28.30;23.48;;;;;;;;;;10333294;28;20079;-71
2023/02/08 13:04:39;;;;;;;28.55;22.13;;;;;;;;;;10333501;28;20079;-71
2023/02/08 13:09:40;;;;;;;32.95;25.50;;;;;;;;;;10334288;28;20074;-71
2023/02/08 13:14:41;;;;;;;20.33;16.52;;;;;;;;;;10335286;28;20072;-71
2023/02/08 13:19:46;;;;;;;22.52;17.90;;;;;;;;;;10329682;28;20123;-71
2023/02/08 13:24:56;;;;;;;22.85;15.30;;;;;;;;;;10334345;28;20064;-71
2023/02/08 13:30:07;;;;;;;26.30;20.80;;;;;;;;;;10316039;28;20494;-71
2023/02/08 13:35:11;;;;;;;35.33;20.45;;;;;;;;;;10333818;28;20078;-71
2023/02/08 13:40:20;;;;;;;25.23;18.50;;;;;;;;;;10332231;28;20076;-71
2023/02/08 13:45:25;;;;;;;38.17;25.95;;;;;;;;;;10335475;28;20091;-71
2023/02/08 13:50:38;;;;;;;40.53;28.80;;;;;;;;;;10333224;28;20477;-71
2023/02/08 13:55:40;;;;;;;54.85;36.05;;;;;;;;;;10331440;28;20083;-70
2023/02/08 14:01:00;;;;;;;69.47;45.95;;;;;;;;;;10332735;28;20589;-70
2023/02/08 14:05:59;;;;;;;56.15;38.05;;;;;;;;;;10331293;28;20064;-71
2023/02/08 14:11:03;;;;;;;46.72;32.72;;;;;;;;;;10331571;28;20068;-71
2023/02/08 14:16:19;;;;;;;56.70;36.43;;;;;;;;;;10331356;28;20125;-71
2023/02/08 14:21:26;;;;;;;39.90;27.02;;;;;;;;;;10314751;28;20346;-71
2023/02/08 14:26:24;;;;;;;47.15;36.22;;;;;;;;;;10330999;28;20078;-71
2023/02/08 14:31:35;;;;;;;40.22;27.83;;;;;;;;;;10329961;28;20087;-71
2023/02/08 14:36:35;;;;;;;37.20;28.88;;;;;;;;;;10332111;28;20076;-71
2023/02/08 14:41:47;;;;;;;33.25;21.75;;;;;;;;;;10329473;28;20087;-71
2023/02/08 14:46:46;;;;;;;80.53;50.55;;;;;;;;;;10330943;28;20064;-71
2023/02/08 14:51:48;;;;;;;42.92;29.75;;;;;;;;;;10327932;28;20126;-71
2023/02/08 14:56:50;;;;;;;26.30;17.17;;;;;;;;;;10331454;28;20071;-71
2023/02/08 15:01:50;;;;;;;28.85;18.05;;;;;;;;;;10329170;28;20076;-70
2023/02/08 15:07:08;;;;;;;33.97;23.70;;;;;;;;;;10315507;28;20064;-71
2023/02/08 15:12:11;;;;;;;81.55;44.13;;;;;;;;;;10331454;28;20462;-70
2023/02/08 15:17:19;;;;;;;73.45;45.72;;;;;;;;;;10336856;28;20076;-71
2023/02/08 15:22:28;;;;;;;31.02;21.63;;;;;;;;;;10331695;28;20071;-71
2023/02/08 15:27:27;;;;;;;32.63;23.05;;;;;;;;;;10327817;28;20071;-71
2023/02/08 15:32:26;;;;;;;31.58;21.98;;;;;;;;;;10330297;28;20469;-71
2023/02/08 15:37:27;;;;;;;38.10;26.65;;;;;;;;;;10342290;28;20068;-71
2023/02/08 15:42:27;;;;;;;40.17;23.48;;;;;;;;;;10330012;28;20080;-71
2023/02/08 15:47:27;;;;;;;29.60;19.52;;;;;;;;;;10328837;28;20060;-71
2023/02/08 15:52:28;;;;;;;26.88;19.05;;;;;;;;;;10343544;28;20060;-71
2023/02/08 15:57:33;;;;;;;33.75;23.13;;;;;;;;;;10340530;28;20072;-71
2023/02/08 16:02:32;;;;;;;33.28;21.08;;;;;;;;;;10329308;28;20071;-71
2023/02/08 16:07:33;;;;;;;31.60;20.88;;;;;;;;;;10349967;28;20071;-71
2023/02/08 16:12:32;;;;;;;33.45;22.65;;;;;;;;;;10331141;28;20529;-71
2023/02/08 16:17:37;;;;;;;37.08;24.30;;;;;;;;;;10336470;28;20504;-70
2023/02/08 16:22:36;;;;;;;42.17;26.45;;;;;;;;;;10349170;28;20072;-70
2023/02/08 16:27:35;;;;;;;21.88;16.42;;;;;;;;;;10352024;28;20489;-70
2023/02/08 16:32:35;;;;;;;37.40;23.15;;;;;;;;;;10345945;28;20506;-69
2023/02/08 16:37:35;;;;;;;48.42;33.38;;;;;;;;;;10344013;28;20060;-70
2023/02/08 16:42:38;;;;;;;39.15;25.90;;;;;;;;;;10337616;28;20068;-71
2023/02/08 16:47:37;;;;;;;39.75;23.40;;;;;;;;;;10340084;28;20071;-71
2023/02/08 16:52:36;;;;;;;34.38;25.20;;;;;;;;;;10340328;28;20071;-71
2023/02/08 16:57:42;;;;;;;37.97;24.70;;;;;;;;;;10331357;28;20075;-71
2023/02/08 17:02:40;;;;;;;29.48;20.70;;;;;;;;;;10331765;28;20072;-70
2023/02/08 17:07:39;;;;;;;42.65;26.80;;;;;;;;;;10333150;28;20493;-70
2023/02/08 17:12:37;;;;;;;33.75;21.83;;;;;;;;;;10336596;28;20531;-71
2023/02/08 17:17:36;;;;;;;30.27;21.50;;;;;;;;;;10331466;28;20068;-71
2023/02/08 17:22:34;;;;;;;27.10;19.95;;;;;;;;;;10332167;28;20080;-71
2023/02/08 17:27:33;;;;;;;28.80;21.60;;;;;;;;;;10333762;28;20075;-70
2023/02/08 17:32:31;;;;;;;36.03;22.02;;;;;;;;;;10332867;28;20084;-71
2023/02/08 17:37:31;;;;;;;26.92;18.65;;;;;;;;;;10342790;28;20063;-70
2023/02/08 17:42:31;;;;;;;44.35;27.45;;;;;;;;;;10329591;28;20496;-70
2023/02/08 17:47:29;;;;;;;35.13;20.42;;;;;;;;;;10330782;28;20079;-70
2023/02/08 17:52:27;;;;;;;22.88;15.85;;;;;;;;;;10328809;28;20097;-70
2023/02/08 17:57:27;;;;;;;20.77;15.00;;;;;;;;;;10331765;28;20498;-71
2023/02/08 18:02:25;;;;;;;37.75;22.33;;;;;;;;;;10330667;28;20536;-72
2023/02/08 18:07:23;;;;;;;41.17;25.40;;;;;;;;;;10332739;28;20090;-71
2023/02/08 18:12:21;;;;;;;26.58;18.10;;;;;;;;;;10334035;28;20481;-72
2023/02/08 18:17:21;;;;;;;20.25;15.15;;;;;;;;;;10320033;28;20075;-72
2023/02/08 18:22:19;;;;;;;32.75;20.35;;;;;;;;;;10320515;28;20560;-72
2023/02/08 18:27:19;;;;;;;24.60;17.63;;;;;;;;;;10347718;28;20074;-72
2023/02/08 18:32:19;;;;;;;49.42;28.45;;;;;;;;;;10338974;28;20072;-70
2023/02/08 18:37:19;;;;;;;40.17;25.33;;;;;;;;;;10337061;28;20063;-72
2023/02/08 18:42:17;;;;;;;23.75;18.02;;;;;;;;;;10335123;28;20067;-72
2023/02/08 18:47:15;;;;;;;37.25;24.92;;;;;;;;;;10339319;28;20068;-72
2023/02/08 18:52:14;;;;;;;27.15;18.45;;;;;;;;;;10330873;28;20072;-70
2023/02/08 18:57:14;;;;;;;42.78;27.65;;;;;;;;;;10334059;28;20620;-72
2023/02/08 19:02:16;;;;;;;41.70;29.20;;;;;;;;;;10328778;28;20063;-72
2023/02/08 19:07:15;;;;;;;42.78;29.38;;;;;;;;;;10329417;28;20516;-72
2023/02/08 19:12:14;;;;;;;52.75;33.20;;;;;;;;;;10323776;28;20079;-72
2023/02/08 19:17:13;;;;;;;58.40;36.10;;;;;;;;;;10334675;28;20082;-72
2023/02/08 19:22:12;;;;;;;58.53;35.75;;;;;;;;;;10344866;28;20080;-72
2023/02/08 19:27:10;;;;;;;50.72;31.48;;;;;;;;;;10333827;28;20079;-72
2023/02/08 19:32:09;;;;;;;51.55;31.88;;;;;;;;;;10322534;28;20083;-72
2023/02/08 19:37:08;;;;;;;47.22;30.50;;;;;;;;;;10333840;28;20526;-72
2023/02/08 19:42:06;;;;;;;54.17;34.72;;;;;;;;;;10340514;28;20076;-71
2023/02/08 19:47:04;;;;;;;56.55;37.05;;;;;;;;;;10332735;28;20060;-72
2023/02/08 19:52:04;;;;;;;107.15;65.63;;;;;;;;;;10332443;28;20079;-71
2023/02/08 19:57:02;;;;;;;115.70;70.65;;;;;;;;;;10338580;28;20082;-73
2023/02/08 20:02:01;;;;;;;88.47;55.50;;;;;;;;;;10332646;28;20090;-72
2023/02/08 20:06:59;;;;;;;96.68;60.88;;;;;;;;;;10339909;28;20067;-72
2023/02/08 20:11:59;;;;;;;109.80;68.88;;;;;;;;;;10337412;28;20477;-72
2023/02/08 20:16:57;;;;;;;113.22;72.30;;;;;;;;;;10336522;28;20076;-73
2023/02/08 20:21:55;;;;;;;143.70;82.60;;;;;;;;;;10336457;28;20078;-72
2023/02/08 20:26:53;;;;;;;129.32;77.78;;;;;;;;;;10334771;28;20091;-73
2023/02/08 20:31:56;;;;;;;95.22;61.70;;;;;;;;;;10332708;28;20164;-72
2023/02/08 20:36:54;;;;;;;104.78;63.65;;;;;;;;;;10336343;28;20060;-72
2023/02/08 20:42:08;;;;;;;111.32;64.10;;;;;;;;;;10334137;28;20068;-71
2023/02/08 20:47:09;;;;;;;344.60;156.35;;;;;;;;;;10343826;28;20076;-72
2023/02/08 20:52:07;;;;;;;180.35;98.38;;;;;;;;;;10339873;28;20072;-72
2023/02/08 20:57:06;;;;;;;84.68;56.08;;;;;;;;;;10335497;28;20071;-72
2023/02/08 21:02:04;;;;;;;80.50;51.47;;;;;;;;;;10331445;28;20083;-72
2023/02/08 21:07:04;;;;;;;150.60;90.38;;;;;;;;;;10331727;28;20072;-72
2023/02/08 21:12:02;;;;;;;110.60;63.17;;;;;;;;;;10334056;28;20078;-72
2023/02/08 21:17:00;;;;;;;97.40;48.88;;;;;;;;;;10334985;28;20072;-73
2023/02/08 21:21:59;;;;;;;80.75;46.40;;;;;;;;;;10337995;28;20078;-72
2023/02/08 21:26:59;;;;;;;62.55;35.50;;;;;;;;;;10332359;28;20070;-72
2023/02/08 21:31:58;;;;;;;103.35;53.35;;;;;;;;;;10333000;28;20072;-72
2023/02/08 21:36:56;;;;;;;165.63;95.50;;;;;;;;;;10334920;28;20072;-71
2023/02/08 21:41:55;;;;;;;95.85;55.65;;;;;;;;;;10331566;28;20075;-73
2023/02/08 21:46:57;;;;;;;64.25;40.33;;;;;;;;;;10331525;28;20083;-71
2023/02/08 21:57:11;;;;;;;110.00;61.53;;;;;;;;;;10331876;28;20075;-71
2023/02/08 22:02:13;;;;;;;53.95;32.53;;;;;;;;;;10331283;28;20103;-72
2023/02/08 22:07:11;;;;;;;68.18;41.47;;;;;;;;;;10329341;28;20083;-72
2023/02/08 22:12:15;;;;;;;39.58;25.50;;;;;;;;;;10332299;28;20067;-72
2023/02/08 22:17:15;;;;;;;35.88;23.05;;;;;;;;;;10331518;28;20421;-72
2023/02/08 22:22:13;;;;;;;37.47;25.40;;;;;;;;;;10336212;28;20079;-72
2023/02/08 22:27:12;;;;;;;40.30;22.30;;;;;;;;;;10329695;28;20059;-72
2023/02/08 22:32:11;;;;;;;40.30;23.88;;;;;;;;;;10333977;28;20090;-72
2023/02/08 22:37:11;;;;;;;39.85;24.73;;;;;;;;;;10337293;28;20448;-72
2023/02/08 22:42:12;;;;;;;38.22;23.25;;;;;;;;;;10328996;28;20076;-72
2023/02/08 22:47:12;;;;;;;46.25;32.13;;;;;;;;;;10331866;28;20079;-72
2023/02/08 22:52:13;;;;;;;48.35;30.88;;;;;;;;;;10331100;28;20075;-71
2023/02/08 22:57:11;;;;;;;63.05;37.17;;;;;;;;;;10330404;28;20475;-72
2023/02/08 23:02:10;;;;;;;50.65;32.13;;;;;;;;;;10333766;28;20305;-72
2023/02/08 23:07:08;;;;;;;50.45;31.85;;;;;;;;;;10325207;28;20068;-71
2023/02/08 23:12:08;;;;;;;64.85;40.47;;;;;;;;;;10327226;28;20079;-71
2023/02/08 23:17:06;;;;;;;51.30;32.08;;;;;;;;;;10324730;28;20072;-72
2023/02/08 23:22:05;;;;;;;52.20;31.98;;;;;;;;;;10326743;28;20083;-72
2023/02/08 23:27:03;;;;;;;38.78;24.70;;;;;;;;;;10330432;28;20075;-72
2023/02/08 23:32:02;;;;;;;31.90;21.67;;;;;;;;;;10340399;28;20458;-72
2023/02/08 23:37:01;;;;;;;30.23;18.70;;;;;;;;;;10335669;28;20060;-71
2023/02/08 23:41:59;;;;;;;31.15;21.30;;;;;;;;;;10335999;28;20103;-72
2023/02/08 23:46:57;;;;;;;27.20;18.67;;;;;;;;;;10340498;28;20068;-71
2023/02/08 23:51:57;;;;;;;28.00;18.90;;;;;;;;;;10338683;28;20521;-72
2023/02/08 23:56:55;;;;;;;28.20;17.58;;;;;;;;;;10336294;28;20554;-71
